Strona główna
METAR-TAF:

METAR-TAF

Lotnisko :

Platforma wiertnicza

D15-fa-1, Holandia

Szerokość geograficzna: 54-19-32N, Długość geograficzna: 2-56-09E, wysokość: 36 m

Aktualna obserwacja pogody

Raport powstał 34 minut temu, godzina 05:55 UTC
Wiatr 14 kt od zachodnio-południowy zachód, zmienny między południe i północny zachód
Temperatura 8°C
Wilgotność 87%
Ciśnienie 969 hPa
Widzialność 10 km lub więcej

METAR: EHDV 130555Z AUTO 24014KT 190V320 9999 FEW008/// SCT011/// OVC036/// 08/06 Q0969

czas: 07:29 (06:29 UTC)


TAF: brakujący

Obserwacja i prognoza pogody dla ponad 4000 lotnisk (raport METAR i TAF).

Dostępne stacje oznaczono żółtymi i czerwonymi punktami na mapie.

Najedź kursorem aby zobaczyć nazwę stacji.

Kliknij aby zobaczyć obserwacje i prognozy pogody.

Aby zmienić mapę: kliknij na zielony przycisk z czarnym krzyżykiem, aby powiększyć; na zielony przycisk z myślnikiem, aby pomniejszyć; na zielone strzałki, aby przejść do map sąsiednich.


METAR-TAF: